Time;durP1;ratioP1;P1;durP2;ratioP2;P2;SDS_P1;SDS_P2;PMS_P1;PMS_P2;Temp;Humidity;BMP_temperature;BMP_pressure;BME280_temperature;BME280_humidity;BME280_pressure;Samples;Min_cycle;Max_cycle;Signal;HPM_P1;HPM_P2
2022/08/22 00:02:04;;;;;;;;;5.00;4.00;;;;;-147.47;100.00;64613.53;5033274;28;45407;-80
2022/08/22 00:04:40;;;;;;;;;3.33;3.33;;;;;-147.47;100.00;64613.53;5030512;28;46246;-79
2022/08/22 00:07:31;;;;;;;;;4.00;4.00;;;;;-147.47;100.00;64613.53;5006776;28;46366;-80
2022/08/22 00:10:07;;;;;;;;;3.00;3.00;;;;;-147.47;100.00;64613.53;5018536;28;45429;-80
2022/08/22 00:13:12;;;;;;;;;5.33;3.67;;;;;-147.47;100.00;64613.53;5032028;28;45794;-79
2022/08/22 00:16:04;;;;;;;;;4.67;3.33;;;;;-147.47;100.00;64613.53;5027265;28;45887;-79
2022/08/22 00:18:32;;;;;;;;;3.67;3.67;;;;;-147.47;100.00;64613.53;4999896;28;46954;-79
2022/08/22 00:21:12;;;;;;;;;6.33;5.33;;;;;-147.47;100.00;64613.53;5022189;28;45337;-79
2022/08/22 00:24:07;;;;;;;;;7.00;6.33;;;;;-147.47;100.00;64613.53;5015165;28;45542;-80
2022/08/22 00:26:53;;;;;;;;;8.67;5.67;;;;;-147.47;100.00;64613.53;5020452;28;45490;-79
2022/08/22 00:29:43;;;;;;;;;3.00;3.00;;;;;-147.47;100.00;64613.53;5029318;28;46106;-81
2022/08/22 00:32:21;;;;;;;;;12.67;9.67;;;;;-147.47;100.00;64613.53;5015305;28;45809;-80
2022/08/22 00:34:52;;;;;;;;;10.00;8.00;;;;;-147.47;100.00;64613.53;5028328;28;45419;-80
2022/08/22 00:37:26;;;;;;;;;6.00;6.00;;;;;-147.47;100.00;64613.53;5000585;28;45431;-80
2022/08/22 00:39:57;;;;;;;;;7.67;7.67;;;;;-147.47;100.00;64613.53;5030991;28;45790;-73
2022/08/22 00:43:08;;;;;;;;;2.67;2.67;;;;;-147.47;100.00;64613.53;5001280;28;45438;-75
2022/08/22 00:45:45;;;;;;;;;5.00;3.33;;;;;-147.47;100.00;64613.53;4960024;28;45890;-74
2022/08/22 00:48:31;;;;;;;;;3.33;3.33;;;;;-147.47;100.00;64613.53;4998537;28;46053;-74
2022/08/22 00:51:12;;;;;;;;;6.33;5.67;;;;;-147.47;100.00;64613.53;5002417;28;47593;-76
2022/08/22 00:54:06;;;;;;;;;3.33;3.33;;;;;-147.47;100.00;64613.53;5028130;28;45401;-73
2022/08/22 00:56:59;;;;;;;;;3.33;2.00;;;;;-147.47;100.00;64613.53;5026876;28;45858;-74
2022/08/22 00:59:58;;;;;;;;;3.33;3.33;;;;;-147.47;100.00;64613.53;5021170;28;45642;-73
2022/08/22 01:02:34;;;;;;;;;4.00;3.00;;;;;-147.47;100.00;64613.53;5020904;28;46144;-75
2022/08/22 01:05:19;;;;;;;;;3.33;3.00;;;;;-147.47;100.00;64613.53;5033161;28;45567;-74
2022/08/22 01:08:03;;;;;;;;;5.00;2.00;;;;;-147.47;100.00;64613.53;5033196;28;45843;-73
2022/08/22 01:10:54;;;;;;;;;4.00;3.00;;;;;-147.47;100.00;64613.53;5004017;28;45779;-74
2022/08/22 01:13:54;;;;;;;;;3.00;2.00;;;;;-147.47;100.00;64613.53;5011165;28;46157;-74
2022/08/22 01:16:43;;;;;;;;;3.00;3.00;;;;;-147.47;100.00;64613.53;5018282;28;45731;-73
2022/08/22 01:19:25;;;;;;;;;6.00;3.00;;;;;-147.47;100.00;64613.53;5022274;28;45614;-76
2022/08/22 01:22:08;;;;;;;;;3.00;3.00;;;;;-147.47;100.00;64613.53;5015010;28;45419;-74
2022/08/22 01:25:18;;;;;;;;;2.67;2.67;;;;;-147.47;100.00;64613.53;4999173;28;47391;-74
2022/08/22 01:28:08;;;;;;;;;2.33;2.33;;;;;-147.47;100.00;64613.53;5012225;28;45501;-73
2022/08/22 01:31:04;;;;;;;;;5.00;2.67;;;;;-147.47;100.00;64613.53;5032423;28;45509;-75
2022/08/22 01:33:57;;;;;;;;;1.00;1.00;;;;;-147.47;100.00;64613.53;5032669;28;45916;-75
2022/08/22 01:36:34;;;;;;;;;3.00;2.67;;;;;-147.47;100.00;64613.53;5015591;28;45404;-74
2022/08/22 01:39:09;;;;;;;;;2.33;2.33;;;;;-147.47;100.00;64613.53;5016683;28;45568;-74
2022/08/22 01:42:31;;;;;;;;;2.33;2.33;;;;;-147.47;100.00;64613.53;5013132;28;45446;-73
2022/08/22 01:45:21;;;;;;;;;3.00;3.00;;;;;-147.47;100.00;64613.53;5004552;28;45650;-73
2022/08/22 01:47:52;;;;;;;;;3.33;3.33;;;;;-147.47;100.00;64613.53;5022242;28;46082;-73
2022/08/22 01:50:26;;;;;;;;;3.00;2.00;;;;;-147.47;100.00;64613.53;5005408;28;45737;-74
2022/08/22 01:53:01;;;;;;;;;3.00;2.00;;;;;-147.47;100.00;64613.53;5021921;28;45383;-74
2022/08/22 01:56:12;;;;;;;;;1.67;1.67;;;;;-147.47;100.00;64613.53;5001915;28;46379;-74
2022/08/22 01:59:03;;;;;;;;;2.00;2.00;;;;;-147.47;100.00;64613.53;4997159;28;47824;-73
2022/08/22 02:01:51;;;;;;;;;5.00;3.00;;;;;-147.47;100.00;64613.53;5025467;28;45498;-73
2022/08/22 02:04:35;;;;;;;;;3.00;3.00;;;;;-147.47;100.00;64613.53;5031033;28;45610;-73
2022/08/22 02:07:15;;;;;;;;;3.67;3.67;;;;;-147.47;100.00;64613.53;5018125;28;45768;-73
2022/08/22 02:09:52;;;;;;;;;3.33;3.33;;;;;-147.47;100.00;64613.53;4998133;28;47165;-73
2022/08/22 02:12:23;;;;;;;;;3.33;3.33;;;;;-147.47;100.00;64613.53;5013366;28;45438;-73
2022/08/22 02:15:27;;;;;;;;;2.00;2.00;;;;;-147.47;100.00;64613.53;5008627;28;45383;-73
2022/08/22 02:18:05;;;;;;;;;2.67;2.67;;;;;-147.47;100.00;64613.53;5023007;28;45783;-73
2022/08/22 02:20:34;;;;;;;;;2.67;2.67;;;;;-147.47;100.00;64613.53;5024392;28;46476;-73
2022/08/22 02:23:16;;;;;;;;;6.67;5.33;;;;;-147.47;100.00;64613.53;5018000;28;45815;-73
2022/08/22 02:26:02;;;;;;;;;4.33;3.67;;;;;-147.47;100.00;64613.53;5005250;28;45907;-74
2022/08/22 02:28:36;;;;;;;;;3.00;3.00;;;;;-147.47;100.00;64613.53;5021156;28;45419;-73
2022/08/22 02:31:12;;;;;;;;;4.00;3.00;;;;;-147.47;100.00;64613.53;5000139;28;47695;-74
2022/08/22 02:33:44;;;;;;;;;2.67;2.67;;;;;-147.47;100.00;64613.53;5015542;28;45728;-73
2022/08/22 02:36:45;;;;;;;;;3.00;3.00;;;;;-147.47;100.00;64613.53;5028867;28;45509;-73
2022/08/22 02:39:37;;;;;;;;;2.67;2.67;;;;;-147.47;100.00;64613.53;5014483;28;45916;-73
2022/08/22 02:42:41;;;;;;;;;4.00;3.00;;;;;-147.47;100.00;64613.53;5027023;28;46107;-81
2022/08/22 02:45:34;;;;;;;;;4.33;2.00;;;;;-147.47;100.00;64613.53;4989201;28;45567;-78
2022/08/22 02:48:18;;;;;;;;;4.00;3.67;;;;;-147.47;100.00;64613.53;5024362;28;45937;-77
2022/08/22 02:50:56;;;;;;;;;3.00;3.00;;;;;-147.47;100.00;64613.53;5029084;28;45475;-79
2022/08/22 02:53:49;;;;;;;;;2.33;2.33;;;;;-147.47;100.00;64613.53;5022398;28;45344;-81
2022/08/22 02:56:38;;;;;;;;;4.33;1.67;;;;;-147.47;100.00;64613.53;5025705;28;45434;-81
2022/08/22 02:59:31;;;;;;;;;3.33;2.00;;;;;-147.47;100.00;64613.53;5023592;28;45485;-79
2022/08/22 03:02:17;;;;;;;;;4.67;3.33;;;;;-147.47;100.00;64613.53;5026350;28;45301;-79
2022/08/22 03:04:49;;;;;;;;;2.00;2.00;;;;;-147.47;100.00;64613.53;5019559;28;47489;-74
2022/08/22 03:07:22;;;;;;;;;2.00;2.00;;;;;-147.47;100.00;64613.53;5015614;28;45655;-74
2022/08/22 03:09:56;;;;;;;;;4.67;2.00;;;;;-147.47;100.00;64613.53;5021937;28;45566;-73
2022/08/22 03:12:40;;;;;;;;;4.00;4.00;;;;;-147.47;100.00;64613.53;5013839;28;45465;-74
2022/08/22 03:15:33;;;;;;;;;7.67;4.00;;;;;-147.47;100.00;64613.53;5017952;28;46359;-74
2022/08/22 03:18:11;;;;;;;;;3.67;2.00;;;;;-147.47;100.00;64613.53;5018216;28;45499;-74
2022/08/22 03:21:08;;;;;;;;;4.00;4.00;;;;;-147.47;100.00;64613.53;5019332;28;45535;-74
2022/08/22 03:23:47;;;;;;;;;4.33;3.00;;;;;-147.47;100.00;64613.53;5013615;28;46007;-73
2022/08/22 03:26:29;;;;;;;;;3.33;3.33;;;;;-147.47;100.00;64613.53;5028966;28;45344;-73
2022/08/22 03:29:10;;;;;;;;;4.33;3.33;;;;;-147.47;100.00;64613.53;5013506;28;45799;-80
2022/08/22 03:31:36;;;;;;;;;3.00;3.00;;;;;-147.47;100.00;64613.53;5011313;28;45865;-84
2022/08/22 03:34:23;;;;;;;;;3.33;3.33;;;;;-147.47;100.00;64613.53;5025920;28;46035;-79
2022/08/22 03:37:03;;;;;;;;;3.00;2.67;;;;;-147.47;100.00;64613.53;5028076;28;46236;-79
2022/08/22 03:40:21;;;;;;;;;5.00;4.67;;;;;-147.47;100.00;64613.53;5017957;28;45428;-80
2022/08/22 03:43:01;;;;;;;;;5.00;5.00;;;;;-147.47;100.00;64613.53;4955905;28;45794;-79
2022/08/22 03:46:00;;;;;;;;;3.00;3.00;;;;;-147.47;100.00;64613.53;5021776;28;45807;-80
2022/08/22 03:49:03;;;;;;;;;4.00;3.00;;;;;-147.47;100.00;64613.53;5016072;28;45909;-80
2022/08/22 03:51:37;;;;;;;;;3.00;2.33;;;;;-147.47;100.00;64613.53;5028687;28;46660;-80
2022/08/22 03:54:37;;;;;;;;;2.00;2.00;;;;;-147.47;100.00;64613.53;5029144;28;45404;-80
2022/08/22 03:57:21;;;;;;;;;6.67;3.67;;;;;-147.47;100.00;64613.53;5027781;28;46015;-79
2022/08/22 04:00:03;;;;;;;;;3.67;3.00;;;;;-147.47;100.00;64613.53;5020386;28;46226;-79
2022/08/22 04:02:51;;;;;;;;;2.67;2.67;;;;;-147.47;100.00;64613.53;5027810;28;45321;-79
2022/08/22 04:05:50;;;;;;;;;4.67;3.00;;;;;-147.47;100.00;64613.53;5020931;28;45800;-80
2022/08/22 04:08:19;;;;;;;;;5.67;3.00;;;;;-147.47;100.00;64613.53;5012858;28;46233;-78
2022/08/22 04:11:01;;;;;;;;;3.33;3.33;;;;;-147.47;100.00;64613.53;5022806;28;45499;-78
2022/08/22 04:14:02;;;;;;;;;3.33;3.00;;;;;-147.47;100.00;64613.53;5005213;28;45356;-78
2022/08/22 04:16:59;;;;;;;;;4.00;4.00;;;;;-147.47;100.00;64613.53;5019617;28;45953;-80
2022/08/22 04:19:44;;;;;;;;;5.67;4.67;;;;;-147.47;100.00;64613.53;5016571;28;45539;-81
2022/08/22 04:22:16;;;;;;;;;4.00;3.67;;;;;-147.47;100.00;64613.53;5032818;28;45745;-81
2022/08/22 04:24:51;;;;;;;;;2.33;2.33;;;;;-147.47;100.00;64613.53;5014727;28;45769;-79
2022/08/22 04:27:22;;;;;;;;;3.67;2.67;;;;;-147.47;100.00;64613.53;5013490;28;45782;-81
2022/08/22 04:29:58;;;;;;;;;1.00;1.00;;;;;-147.47;100.00;64613.53;5034196;28;45808;-80
2022/08/22 04:32:40;;;;;;;;;5.67;4.00;;;;;-147.47;100.00;64613.53;5033627;28;46177;-80
2022/08/22 04:35:12;;;;;;;;;4.33;3.00;;;;;-147.47;100.00;64613.53;5031298;28;45799;-80
2022/08/22 04:37:49;;;;;;;;;3.00;3.00;;;;;-147.47;100.00;64613.53;5031899;28;45472;-80
2022/08/22 04:40:27;;;;;;;;;6.00;6.00;;;;;-147.47;100.00;64613.53;5025204;28;46922;-80
2022/08/22 04:43:00;;;;;;;;;6.00;4.00;;;;;-147.47;100.00;64613.53;5030888;28;45361;-79
2022/08/22 04:45:36;;;;;;;;;6.67;5.00;;;;;-147.47;100.00;64613.53;5033507;28;45787;-81
2022/08/22 04:48:12;;;;;;;;;8.33;8.33;;;;;-147.47;100.00;64613.53;5023778;28;45358;-80
2022/08/22 04:50:46;;;;;;;;;7.67;7.00;;;;;-147.47;100.00;64613.53;5030620;28;45747;-80
2022/08/22 04:53:27;;;;;;;;;4.00;2.33;;;;;-147.47;100.00;64613.53;5009324;28;47243;-82
2022/08/22 04:56:25;;;;;;;;;10.33;9.67;;;;;-147.47;100.00;64613.53;5007241;28;45559;-80
2022/08/22 04:59:00;;;;;;;;;4.33;3.67;;;;;-147.47;100.00;64613.53;5009565;28;45393;-77
2022/08/22 05:01:37;;;;;;;;;4.33;4.00;;;;;-147.47;100.00;64613.53;5015097;28;46294;-81
2022/08/22 05:04:09;;;;;;;;;3.67;3.00;;;;;-147.47;100.00;64613.53;5037322;28;45344;-80
2022/08/22 05:06:40;;;;;;;;;5.00;4.00;;;;;-147.47;100.00;64613.53;5021864;28;45311;-80
2022/08/22 05:09:13;;;;;;;;;5.00;4.00;;;;;-147.47;100.00;64613.53;5032956;28;45527;-79
2022/08/22 05:11:40;;;;;;;;;5.33;4.33;;;;;-147.47;100.00;64613.53;5029365;28;45798;-79
2022/08/22 05:14:20;;;;;;;;;4.00;3.67;;;;;-147.47;100.00;64613.53;5031522;28;45478;-79
2022/08/22 05:16:52;;;;;;;;;5.00;3.00;;;;;-147.47;100.00;64613.53;5025761;28;45572;-78
2022/08/22 05:19:23;;;;;;;;;4.00;4.00;;;;;-147.47;100.00;64613.53;5019244;28;45439;-80
2022/08/22 05:21:50;;;;;;;;;8.33;6.33;;;;;-147.47;100.00;64613.53;5019983;28;45867;-80
2022/08/22 05:24:38;;;;;;;;;5.00;4.00;;;;;-147.47;100.00;64613.53;5030388;28;46526;-80
2022/08/22 05:27:10;;;;;;;;;4.33;4.00;;;;;-147.47;100.00;64613.53;5009034;28;45558;-78
2022/08/22 05:29:39;;;;;;;;;6.00;4.33;;;;;-147.47;100.00;64613.53;5018810;28;45653;-81
2022/08/22 05:32:11;;;;;;;;;4.67;4.67;;;;;-147.47;100.00;64613.53;5017147;28;45613;-80
2022/08/22 05:34:40;;;;;;;;;3.00;3.00;;;;;-147.47;100.00;64613.53;5013403;28;46073;-82
2022/08/22 05:37:20;;;;;;;;;3.00;3.00;;;;;-147.47;100.00;64613.53;5026896;28;45498;-80
2022/08/22 05:39:50;;;;;;;;;5.67;5.00;;;;;-147.47;100.00;64613.53;5004185;28;45404;-80
2022/08/22 05:42:27;;;;;;;;;4.00;3.00;;;;;-147.47;100.00;64613.53;5032665;28;45451;-80
2022/08/22 05:44:54;;;;;;;;;3.67;3.67;;;;;-147.47;100.00;64613.53;5032537;28;46682;-80
2022/08/22 05:47:25;;;;;;;;;4.67;4.67;;;;;-147.47;100.00;64613.53;5021139;28;45877;-81
2022/08/22 05:50:03;;;;;;;;;3.67;3.33;;;;;-147.47;100.00;64613.53;5018359;28;45360;-80
2022/08/22 05:52:50;;;;;;;;;4.00;3.00;;;;;-147.47;100.00;64613.53;5014232;28;46965;-80
2022/08/22 05:55:31;;;;;;;;;2.00;2.00;;;;;-147.47;100.00;64613.53;5007688;28;45752;-80
2022/08/22 05:58:29;;;;;;;;;6.00;4.50;;;;;-147.47;100.00;64613.53;5021018;28;45411;-81
2022/08/22 06:01:19;;;;;;;;;5.67;4.67;;;;;-147.47;100.00;64613.53;5015940;28;45574;-80
2022/08/22 06:03:52;;;;;;;;;5.00;5.00;;;;;-147.47;100.00;64613.53;4991924;28;46053;-79
2022/08/22 06:06:20;;;;;;;;;2.67;2.67;;;;;-147.47;100.00;64613.53;5023049;28;47458;-73
2022/08/22 06:08:57;;;;;;;;;3.33;3.00;;;;;-147.47;100.00;64613.53;5023409;28;45752;-74
2022/08/22 06:11:36;;;;;;;;;3.25;3.25;;;;;-147.47;100.00;64613.53;5030899;28;45429;-74
2022/08/22 06:14:32;;;;;;;;;3.25;3.25;;;;;-147.47;100.00;64613.53;5028733;28;45426;-74
2022/08/22 06:17:25;;;;;;;;;4.00;2.25;;;;;-147.47;100.00;64613.53;5012728;28;46379;-74
2022/08/22 06:19:52;;;;;;;;;4.00;3.00;;;;;-147.47;100.00;64613.53;5031664;28;45860;-73
2022/08/22 06:22:25;;;;;;;;;3.75;3.00;;;;;-147.47;100.00;64613.53;5024823;28;45615;-75
2022/08/22 06:24:55;;;;;;;;;5.50;4.00;;;;;-147.47;100.00;64613.53;5029777;28;47005;-75
2022/08/22 06:27:25;;;;;;;;;3.25;3.25;;;;;-147.47;100.00;64613.53;5028439;28;47611;-75
2022/08/22 06:29:59;;;;;;;;;2.75;2.75;;;;;-147.47;100.00;64613.53;5023801;28;45778;-73
2022/08/22 06:32:28;;;;;;;;;4.00;3.25;;;;;-147.47;100.00;64613.53;5013446;28;45731;-75
2022/08/22 06:35:01;;;;;;;;;5.00;4.50;;;;;-147.47;100.00;64613.53;5031792;28;45524;-73
2022/08/22 06:37:33;;;;;;;;;2.75;2.75;;;;;-147.47;100.00;64613.53;5020826;28;46178;-74
2022/08/22 06:40:01;;;;;;;;;5.75;4.75;;;;;-147.47;100.00;64613.53;5022438;28;45341;-74
2022/08/22 06:42:31;;;;;;;;;4.25;4.25;;;;;-147.47;100.00;64613.53;5025444;28;45381;-74
2022/08/22 06:45:04;;;;;;;;;5.00;4.25;;;;;-147.47;100.00;64613.53;5017473;28;45309;-75
2022/08/22 06:47:35;;;;;;;;;3.75;3.75;;;;;-147.47;100.00;64613.53;5026092;28;45434;-74
2022/08/22 06:50:10;;;;;;;;;4.00;4.00;;;;;-147.47;100.00;64613.53;5016752;28;45944;-75
2022/08/22 06:52:49;;;;;;;;;6.25;3.00;;;;;-147.47;100.00;64613.53;5022635;28;45522;-74
2022/08/22 06:55:15;;;;;;;;;4.75;4.75;;;;;-147.47;100.00;64613.53;5013083;28;45919;-75
2022/08/22 06:57:53;;;;;;;;;3.00;3.00;;;;;-147.47;100.00;64613.53;5009720;28;47093;-74
2022/08/22 07:00:19;;;;;;;;;5.50;4.00;;;;;-147.47;100.00;64613.53;4997176;28;45668;-76
2022/08/22 07:02:57;;;;;;;;;4.25;3.00;;;;;-147.47;100.00;64613.53;5013649;28;45554;-80
2022/08/22 07:05:27;;;;;;;;;3.00;3.00;;;;;-147.47;100.00;64613.53;5020216;28;45882;-75
2022/08/22 07:07:55;;;;;;;;;3.75;3.75;;;;;-147.47;100.00;64613.53;5007360;28;47291;-76
2022/08/22 07:10:22;;;;;;;;;3.00;3.00;;;;;-147.47;100.00;64613.53;5019295;28;45498;-74
2022/08/22 07:12:52;;;;;;;;;5.00;4.00;;;;;-147.47;100.00;64613.53;5018999;28;45517;-76
2022/08/22 07:15:28;;;;;;;;;6.50;4.00;;;;;-147.47;100.00;64613.53;5023511;28;45808;-74
2022/08/22 07:17:59;;;;;;;;;3.00;3.00;;;;;-147.47;100.00;64613.53;5026715;28;46775;-75
2022/08/22 07:20:33;;;;;;;;;4.00;2.00;;;;;-147.47;100.00;64613.53;5013755;28;45770;-74
2022/08/22 07:23:09;;;;;;;;;2.00;2.00;;;;;-147.47;100.00;64613.53;5008252;28;45539;-74
2022/08/22 07:26:02;;;;;;;;;4.00;2.75;;;;;-147.47;100.00;64613.53;5014524;28;45816;-79
2022/08/22 07:28:31;;;;;;;;;3.00;3.00;;;;;-147.47;100.00;64613.53;5001630;28;48062;-81
2022/08/22 07:31:10;;;;;;;;;1.50;1.25;;;;;-147.47;100.00;64613.53;5015545;28;45780;-81
2022/08/22 07:33:45;;;;;;;;;4.50;3.00;;;;;-147.47;100.00;64613.53;5025859;28;45885;-79
2022/08/22 07:36:20;;;;;;;;;2.50;2.00;;;;;-147.47;100.00;64613.53;4995410;28;47015;-79
2022/08/22 07:39:02;;;;;;;;;2.75;1.75;;;;;-147.47;100.00;64613.53;5027899;28;46526;-80
2022/08/22 07:41:44;;;;;;;;;2.75;2.50;;;;;-147.47;100.00;64613.53;5025060;28;45379;-79
2022/08/22 07:44:19;;;;;;;;;3.00;2.50;;;;;-147.47;100.00;64613.53;5021915;28;45621;-74
2022/08/22 07:47:03;;;;;;;;;3.25;3.25;;;;;-147.47;100.00;64613.53;5021611;28;45770;-79
2022/08/22 07:49:37;;;;;;;;;3.50;2.50;;;;;-147.47;100.00;64613.53;5017027;28;45741;-80
2022/08/22 07:52:12;;;;;;;;;3.75;2.00;;;;;-147.47;100.00;64613.53;5021250;28;45750;-75
2022/08/22 07:54:59;;;;;;;;;2.75;2.75;;;;;-147.47;100.00;64613.53;5019717;28;45393;-74
2022/08/22 07:57:36;;;;;;;;;3.50;3.50;;;;;-147.47;100.00;64613.53;5015147;28;45651;-73
2022/08/22 08:00:11;;;;;;;;;3.00;3.00;;;;;-147.47;100.00;64613.53;5010512;28;47110;-75
2022/08/22 08:02:43;;;;;;;;;2.00;2.00;;;;;-147.47;100.00;64613.53;5015981;28;45372;-74
2022/08/22 08:05:12;;;;;;;;;3.00;3.00;;;;;-147.47;100.00;64613.53;5011995;28;45488;-74
2022/08/22 08:07:42;;;;;;;;;3.75;3.75;;;;;-147.47;100.00;64613.53;5027702;28;45483;-74
2022/08/22 08:10:15;;;;;;;;;3.00;3.00;;;;;-147.47;100.00;64613.53;5018431;28;45773;-74
2022/08/22 08:12:57;;;;;;;;;6.50;4.50;;;;;-147.47;100.00;64613.53;5032493;28;45914;-74
2022/08/22 08:15:23;;;;;;;;;5.25;3.25;;;;;-147.47;100.00;64613.53;5032829;28;45411;-75
2022/08/22 08:17:56;;;;;;;;;3.25;3.25;;;;;-147.47;100.00;64613.53;5009696;28;47141;-75
2022/08/22 08:20:25;;;;;;;;;5.75;4.00;;;;;-147.47;100.00;64613.53;5026808;28;45473;-76
2022/08/22 08:22:53;;;;;;;;;4.00;4.00;;;;;-147.47;100.00;64613.53;5024889;28;45535;-74
2022/08/22 08:25:24;;;;;;;;;2.25;2.25;;;;;-147.47;100.00;64613.53;5015658;28;45555;-75
2022/08/22 08:30:53;;;;;;;;;5.25;3.25;;;;;-147.47;100.00;64613.53;5024597;28;45575;-75
2022/08/22 08:33:22;;;;;;;;;3.00;3.00;;;;;-147.47;100.00;64613.53;5004042;28;45907;-75
2022/08/22 08:36:02;;;;;;;;;4.00;3.50;;;;;-147.47;100.00;64613.53;4994371;28;45818;-77
2022/08/22 08:38:34;;;;;;;;;5.75;4.00;;;;;-147.47;100.00;64613.53;5025826;28;45400;-75
2022/08/22 08:41:26;;;;;;;;;2.75;2.75;;;;;-147.47;100.00;64613.53;5030436;28;45579;-75
2022/08/22 08:44:12;;;;;;;;;2.75;2.75;;;;;-147.47;100.00;64613.53;5027068;28;45425;-76
2022/08/22 08:46:48;;;;;;;;;4.75;3.00;;;;;-147.47;100.00;64613.53;5031431;28;45855;-74
2022/08/22 08:49:37;;;;;;;;;4.50;3.50;;;;;-147.47;100.00;64613.53;5013707;28;47158;-74
2022/08/22 08:52:22;;;;;;;;;2.00;2.00;;;;;-147.47;100.00;64613.53;4982009;28;48267;-75
2022/08/22 08:55:05;;;;;;;;;4.75;3.50;;;;;-147.47;100.00;64613.53;5043580;28;45370;-74
2022/08/22 08:57:52;;;;;;;;;4.00;3.50;;;;;-147.47;100.00;64613.53;5039310;28;45459;-76
2022/08/22 09:00:46;;;;;;;;;3.00;3.00;;;;;-147.47;100.00;64613.53;5039557;28;46768;-76
2022/08/22 09:03:23;;;;;;;;;2.25;2.25;;;;;-147.47;100.00;64613.53;5034682;28;45450;-75
2022/08/22 09:05:52;;;;;;;;;5.25;5.25;;;;;-147.47;100.00;64613.53;5038883;28;45353;-77
2022/08/22 09:08:36;;;;;;;;;2.00;2.00;;;;;-147.47;100.00;64613.53;5040779;28;45550;-76
2022/08/22 09:11:11;;;;;;;;;1.00;1.00;;;;;-147.47;100.00;64613.53;5024030;28;45896;-75
2022/08/22 09:13:44;;;;;;;;;3.00;2.00;;;;;-147.47;100.00;64613.53;5039359;28;45419;-76
2022/08/22 09:16:31;;;;;;;;;2.00;2.00;;;;;-147.47;100.00;64613.53;5042271;28;45486;-78
2022/08/22 09:19:36;;;;;;;;;2.50;2.50;;;;;-147.47;100.00;64613.53;5042042;28;45502;-77
2022/08/22 09:22:26;;;;;;;;;1.25;1.25;;;;;-147.47;100.00;64613.53;5025678;28;45581;-76
2022/08/22 09:25:20;;;;;;;;;2.00;2.00;;;;;-147.47;100.00;64613.53;5024577;28;48058;-77
2022/08/22 09:27:52;;;;;;;;;2.50;2.00;;;;;-147.47;100.00;64613.53;5024320;28;45957;-75
2022/08/22 09:30:23;;;;;;;;;3.67;3.67;;;;;-147.47;100.00;64613.53;5037535;28;45316;-76
2022/08/22 09:33:10;;;;;;;;;3.00;3.00;;;;;-147.47;100.00;64613.53;5040921;28;46009;-74
2022/08/22 09:35:49;;;;;;;;;2.25;2.25;;;;;-147.47;100.00;64613.53;5042544;28;45463;-75
2022/08/22 09:38:14;;;;;;;;;3.75;3.75;;;;;-147.47;100.00;64613.53;5040668;28;45534;-75
2022/08/22 09:40:59;;;;;;;;;3.00;3.00;;;;;-147.47;100.00;64613.53;5021430;28;45480;-77
2022/08/22 09:43:37;;;;;;;;;2.00;2.00;;;;;-147.47;100.00;64613.53;5041799;28;45047;-79
2022/08/22 09:46:22;;;;;;;;;2.75;1.75;;;;;-147.47;100.00;64613.53;5038743;28;46485;-76
2022/08/22 09:49:05;;;;;;;;;1.00;1.00;;;;;-147.47;100.00;64613.53;5031985;28;45485;-76
2022/08/22 09:51:40;;;;;;;;;1.75;1.50;;;;;-147.47;100.00;64613.53;5014334;28;45468;-75
2022/08/22 09:54:28;;;;;;;;;1.50;1.50;;;;;-147.47;100.00;64613.53;5038687;28;45364;-77
2022/08/22 09:57:37;;;;;;;;;2.00;2.00;;;;;-147.47;100.00;64613.53;5042371;28;45363;-79
2022/08/22 10:00:08;;;;;;;;;2.75;1.75;;;;;-147.47;100.00;64613.53;5045943;28;45408;-83
2022/08/22 10:02:43;;;;;;;;;1.50;1.50;;;;;-147.47;100.00;64613.53;5048343;28;44764;-81
2022/08/22 10:05:16;;;;;;;;;2.67;2.67;;;;;-147.47;100.00;64613.53;5041538;28;45336;-81
2022/08/22 10:08:07;;;;;;;;;2.67;2.67;;;;;-147.47;100.00;64613.53;5034688;28;46274;-81
2022/08/22 10:10:59;;;;;;;;;2.00;2.00;;;;;-147.47;100.00;64613.53;5027695;28;45399;-82
2022/08/22 10:13:40;;;;;;;;;1.33;1.33;;;;;-147.47;100.00;64613.53;5019465;28;45402;-83
2022/08/22 10:17:01;;;;;;;;;2.00;2.00;;;;;-147.47;100.00;64613.53;5028321;28;46823;-80
2022/08/22 10:19:53;;;;;;;;;2.00;1.00;;;;;-147.47;100.00;64613.53;4945642;28;47055;-80
2022/08/22 10:22:40;;;;;;;;;1.00;1.00;;;;;-147.47;100.00;64613.53;5031847;28;45399;-83
2022/08/22 10:25:40;;;;;;;;;1.33;1.00;;;;;-147.47;100.00;64613.53;5048723;28;45486;-81
2022/08/22 10:28:52;;;;;;;;;2.00;2.00;;;;;-147.47;100.00;64613.53;5046891;28;45441;-81
2022/08/22 10:31:47;;;;;;;;;1.67;1.00;;;;;-147.47;100.00;64613.53;4954676;28;46312;-80
2022/08/22 10:34:21;;;;;;;;;2.25;2.25;;;;;-147.47;100.00;64613.53;4980813;28;44799;-82
2022/08/22 10:37:21;;;;;;;;;1.33;0.67;;;;;-147.47;100.00;64613.53;4995468;28;45464;-81
2022/08/22 10:40:20;;;;;;;;;2.00;2.00;;;;;-147.47;100.00;64613.53;5025851;28;44792;-82
2022/08/22 10:42:52;;;;;;;;;2.33;2.00;;;;;-147.47;100.00;64613.53;4997336;28;47125;-80
2022/08/22 10:45:20;;;;;;;;;2.00;2.00;;;;;-147.47;100.00;64613.53;5047366;28;45339;-80
2022/08/22 10:47:49;;;;;;;;;2.00;2.00;;;;;-147.47;100.00;64613.53;5047765;28;45468;-82
2022/08/22 10:50:22;;;;;;;;;1.00;1.00;;;;;-147.47;100.00;64613.53;5030639;28;46103;-82
2022/08/22 10:53:28;;;;;;;;;2.00;2.00;;;;;-147.47;100.00;64613.53;5048963;28;46418;-82
2022/08/22 10:55:43;;;;;;;;;1.50;1.50;;;;;-147.47;100.00;64613.53;5048184;28;45349;-81
2022/08/22 10:58:12;;;;;;;;;1.50;1.50;;;;;-147.47;100.00;64613.53;5044788;28;45438;-81
2022/08/22 11:00:55;;;;;;;;;1.00;1.00;;;;;-147.47;100.00;64613.53;5026569;28;45813;-81
2022/08/22 11:03:50;;;;;;;;;2.00;1.00;;;;;-147.47;100.00;64613.53;5033703;28;45531;-80
2022/08/22 11:06:29;;;;;;;;;2.00;2.00;;;;;-147.47;100.00;64613.53;5037647;28;45492;-81
2022/08/22 11:09:33;;;;;;;;;2.25;1.25;;;;;-147.47;100.00;64613.53;5048870;28;45356;-80
2022/08/22 11:12:06;;;;;;;;;2.00;2.00;;;;;-147.47;100.00;64613.53;5047927;28;45386;-80
2022/08/22 11:15:18;;;;;;;;;2.25;2.25;;;;;-147.47;100.00;64613.53;5045887;28;45385;-80
2022/08/22 11:18:06;;;;;;;;;1.75;1.75;;;;;-147.47;100.00;64613.53;5023539;28;45656;-83
2022/08/22 11:20:54;;;;;;;;;2.50;2.50;;;;;-147.47;100.00;64613.53;5032520;28;45372;-76
2022/08/22 11:23:45;;;;;;;;;1.50;1.50;;;;;-147.47;100.00;64613.53;5050003;28;45279;-81
2022/08/22 11:26:32;;;;;;;;;3.25;2.25;;;;;-147.47;100.00;64613.53;5032947;28;46186;-80
2022/08/22 11:29:12;;;;;;;;;2.00;2.00;;;;;-147.47;100.00;64613.53;5031999;28;45325;-80
2022/08/22 11:31:59;;;;;;;;;2.00;2.00;;;;;-147.47;100.00;64613.53;5031666;28;45561;-80
2022/08/22 11:34:42;;;;;;;;;4.25;2.25;;;;;-147.47;100.00;64613.53;5040586;28;45504;-81
2022/08/22 11:37:21;;;;;;;;;2.50;2.50;;;;;-147.47;100.00;64613.53;5033526;28;46542;-81
2022/08/22 11:40:18;;;;;;;;;2.75;2.00;;;;;-147.47;100.00;64613.53;5031260;28;45270;-80
2022/08/22 11:42:50;;;;;;;;;2.75;2.75;;;;;-147.47;100.00;64613.53;4996036;28;44831;-80
2022/08/22 11:45:24;;;;;;;;;2.50;1.00;;;;;-147.47;100.00;64613.53;5030242;28;44849;-80
2022/08/22 11:48:01;;;;;;;;;2.00;0.00;;;;;-147.47;100.00;64613.53;5021692;28;45517;-80
2022/08/22 11:50:26;;;;;;;;;3.25;1.75;;;;;-147.47;100.00;64613.53;5001628;28;45298;-81
2022/08/22 11:53:05;;;;;;;;;2.00;1.00;;;;;-147.47;100.00;64613.53;5033672;28;45261;-82
2022/08/22 11:55:42;;;;;;;;;2.00;2.00;;;;;-147.47;100.00;64613.53;5032191;28;44924;-81
2022/08/22 11:58:28;;;;;;;;;0.75;0.75;;;;;-147.47;100.00;64613.53;5010396;28;46742;-80
2022/08/22 12:01:10;;;;;;;;;1.25;1.25;;;;;-147.47;100.00;64613.53;5004699;28;45381;-81
2022/08/22 12:04:00;;;;;;;;;1.50;1.50;;;;;-147.47;100.00;64613.53;5030258;28;45428;-80
2022/08/22 12:06:44;;;;;;;;;1.25;1.25;;;;;-147.47;100.00;64613.53;5008257;28;46147;-80
2022/08/22 12:09:40;;;;;;;;;1.75;1.75;;;;;-147.47;100.00;64613.53;5010033;28;45342;-78
2022/08/22 12:12:23;;;;;;;;;2.75;2.00;;;;;-147.47;100.00;64613.53;5019296;28;45294;-75
2022/08/22 12:15:14;;;;;;;;;1.00;1.00;;;;;-147.47;100.00;64613.53;5005709;28;45488;-74
2022/08/22 12:18:16;;;;;;;;;1.00;1.00;;;;;-147.47;100.00;64613.53;5024088;28;45456;-75